Time;durP1;ratioP1;P1;durP2;ratioP2;P2;SDS_P1;SDS_P2;PMS_P1;PMS_P2;Temp;Humidity;BMP_temperature;BMP_pressure;BME280_temperature;BME280_humidity;BME280_pressure;Samples;Min_cycle;Max_cycle;Signal;HPM_P1;HPM_P2
2023/03/26 00:02:13;;;;;;;2.90;1.50;;;;;;;9.03;100.00;96273.38;5052678;28;20214;-55
2023/03/26 00:04:41;;;;;;;2.20;1.27;;;;;;;9.04;100.00;96282.91;5053367;28;20322;-55
2023/03/26 00:07:11;;;;;;;6.13;1.77;;;;;;;9.11;100.00;96270.81;5052367;28;20207;-55
2023/03/26 00:09:37;;;;;;;4.80;1.40;;;;;;;9.10;100.00;96266.53;5053467;28;20349;-56
2023/03/26 00:12:05;;;;;;;6.30;1.47;;;;;;;9.14;100.00;96267.94;5052470;28;20211;-55
2023/03/26 00:14:31;;;;;;;3.63;1.30;;;;;;;9.17;100.00;96265.00;5052790;28;20203;-56
2023/03/26 00:16:57;;;;;;;2.53;1.17;;;;;;;9.22;100.00;96258.28;5052271;28;20219;-56
2023/03/26 00:19:24;;;;;;;2.20;1.20;;;;;;;9.24;100.00;96259.00;5054263;28;20214;-55
2023/03/26 00:21:52;;;;;;;2.73;1.20;;;;;;;9.27;100.00;96265.78;5053232;28;20608;-56
2023/03/26 00:24:19;;;;;;;3.27;1.33;;;;;;;9.30;100.00;96261.06;5052548;28;20207;-55
2023/03/26 00:26:51;;;;;;;1.10;1.00;;;;;;;9.32;100.00;96258.25;5052722;28;20215;-55
2023/03/26 00:29:18;;;;;;;1.80;0.93;;;;;;;9.33;100.00;96260.75;5052459;28;20231;-55
2023/03/26 00:31:44;;;;;;;3.50;1.60;;;;;;;9.35;99.39;96260.63;5052142;28;20207;-55
2023/03/26 00:34:14;;;;;;;4.50;1.10;;;;;;;9.33;100.00;96260.75;5051928;28;20626;-55
2023/03/26 00:36:41;;;;;;;2.27;1.20;;;;;;;9.32;100.00;96258.25;5051712;28;20263;-57
2023/03/26 00:39:08;;;;;;;4.13;1.10;;;;;;;9.28;100.00;96247.16;5052177;28;20203;-55
2023/03/26 00:41:41;;;;;;;1.93;1.10;;;;;;;9.31;100.00;96257.44;5051988;28;20543;-56
2023/03/26 00:44:08;;;;;;;2.63;1.20;;;;;;;9.22;100.00;96257.47;5052566;28;20260;-55
2023/03/26 00:46:35;;;;;;;3.63;1.33;;;;;;;9.12;100.00;96257.50;5052051;28;20238;-55
2023/03/26 00:49:02;;;;;;;1.73;0.80;;;;;;;9.15;100.00;96259.00;5051437;28;20214;-56
2023/03/26 00:51:29;;;;;;;4.33;1.33;;;;;;;9.17;100.00;96257.91;5051759;28;20203;-55
2023/03/26 00:53:56;;;;;;;3.37;1.33;;;;;;;9.16;100.00;96252.78;5051913;28;20554;-55
2023/03/26 00:56:23;;;;;;;1.23;1.00;;;;;;;9.11;100.00;96244.44;5051834;28;20638;-55
2023/03/26 00:58:51;;;;;;;2.40;1.33;;;;;;;9.12;100.00;96246.94;5051488;28;20227;-55
2023/03/26 01:01:25;;;;;;;2.17;1.27;;;;;;;9.11;100.00;96241.81;5051931;28;20211;-55
2023/03/26 01:03:58;;;;;;;2.40;1.23;;;;;;;9.11;100.00;96239.16;5051795;28;20207;-55
2023/03/26 01:06:31;;;;;;;3.00;1.20;;;;;;;9.11;100.00;96239.16;5051356;28;20635;-55
2023/03/26 01:09:02;;;;;;;2.10;1.23;;;;;;;9.08;100.00;96229.75;5051455;28;20213;-54
2023/03/26 01:11:31;;;;;;;2.73;0.97;;;;;;;9.08;100.00;96221.84;5051124;28;20623;-55
2023/03/26 01:14:00;;;;;;;1.37;1.07;;;;;;;9.12;100.00;96225.00;5051857;28;20206;-56
2023/03/26 01:16:29;;;;;;;2.30;1.13;;;;;;;9.08;100.00;96218.34;5052947;28;20211;-55
2023/03/26 01:18:57;;;;;;;2.93;1.13;;;;;;;8.96;100.00;96215.91;5053565;28;20222;-55
2023/03/26 01:21:28;;;;;;;1.63;1.00;;;;;;;8.95;100.00;96202.88;5054404;28;20242;-56
2023/03/26 01:23:59;;;;;;;2.20;1.27;;;;;;;8.86;100.00;96194.00;5053199;28;20654;-55
2023/03/26 01:26:51;;;;;;;1.93;1.30;;;;;;;8.80;100.00;96191.13;5051795;28;20270;-57
2023/03/26 01:29:22;;;;;;;1.90;1.20;;;;;;;8.79;100.00;96177.09;5051946;28;20294;-56
2023/03/26 01:32:00;;;;;;;1.50;1.10;;;;;;;8.73;100.00;96180.31;5051777;28;20210;-55
2023/03/26 01:34:33;;;;;;;3.43;1.70;;;;;;;8.75;100.00;96177.53;5051359;28;20191;-55
2023/03/26 01:37:07;;;;;;;2.10;1.10;;;;;;;8.71;100.00;96174.38;5052715;28;20309;-54
2023/03/26 01:39:39;;;;;;;2.93;1.03;;;;;;;8.61;100.00;96173.53;5051177;28;20230;-54
2023/03/26 01:42:07;;;;;;;2.33;0.90;;;;;;;8.69;100.00;96170.19;5051556;28;20227;-54
2023/03/26 01:44:38;;;;;;;4.87;1.30;;;;;;;8.58;100.00;96165.91;5050615;28;20211;-55
2023/03/26 01:47:05;;;;;;;1.40;1.00;;;;;;;8.59;100.00;96158.84;5051067;28;20569;-55
2023/03/26 01:49:32;;;;;;;1.80;1.10;;;;;;;8.58;100.00;96151.91;5050834;28;20246;-55
2023/03/26 01:51:58;;;;;;;2.60;1.10;;;;;;;8.57;100.00;96142.34;5051020;28;20602;-55
2023/03/26 01:54:29;;;;;;;4.03;1.20;;;;;;;8.53;100.00;96133.06;5051206;28;20195;-55
2023/03/26 01:57:05;;;;;;;1.57;0.90;;;;;;;8.51;100.00;96130.56;5051433;28;20282;-55
2023/03/26 01:59:47;;;;;;;2.77;1.20;;;;;;;8.55;100.00;96123.19;5051024;28;20219;-56
2023/03/26 02:02:15;;;;;;;4.20;1.73;;;;;;;8.58;100.00;96121.09;5050893;28;20195;-55
2023/03/26 02:04:52;;;;;;;3.90;1.40;;;;;;;8.54;100.00;96119.72;5051103;28;20227;-55
2023/03/26 02:07:22;;;;;;;3.13;1.20;;;;;;;8.50;100.00;96106.00;5049987;28;20209;-55
2023/03/26 02:09:54;;;;;;;4.63;1.33;;;;;;;8.54;100.00;96101.28;5051032;28;20656;-54
2023/03/26 02:12:22;;;;;;;2.13;1.20;;;;;;;8.50;100.00;96092.03;5050203;28;20203;-55
2023/03/26 02:14:49;;;;;;;1.70;1.10;;;;;;;8.45;100.00;96089.00;5050748;28;20202;-55
2023/03/26 02:17:17;;;;;;;1.67;1.10;;;;;;;8.43;100.00;96085.69;5050649;28;20223;-55
2023/03/26 02:19:44;;;;;;;3.83;1.37;;;;;;;8.47;100.00;96081.75;5050801;28;20207;-55
2023/03/26 02:22:14;;;;;;;3.43;1.40;;;;;;;8.43;100.00;96075.13;5050653;28;20214;-55
2023/03/26 02:24:40;;;;;;;1.53;1.07;;;;;;;8.40;100.00;96070.13;5050680;28;20211;-56
2023/03/26 02:27:07;;;;;;;2.83;0.90;;;;;;;8.44;100.00;96066.25;5051121;28;20210;-55
2023/03/26 02:29:37;;;;;;;1.67;1.00;;;;;;;8.40;100.00;96051.69;5050539;28;20561;-55
2023/03/26 02:32:04;;;;;;;1.43;0.70;;;;;;;8.42;100.00;96049.75;5050233;28;20203;-56
2023/03/26 02:34:31;;;;;;;1.40;1.10;;;;;;;8.37;100.00;96044.91;5050501;28;20451;-54
2023/03/26 02:36:58;;;;;;;1.43;1.10;;;;;;;8.38;100.00;96048.38;5050534;28;20203;-56
2023/03/26 02:39:25;;;;;;;2.27;0.80;;;;;;;8.38;100.00;96043.13;5050204;28;20238;-55
2023/03/26 02:41:51;;;;;;;1.97;1.17;;;;;;;8.34;100.00;96033.84;5050455;28;20203;-55
2023/03/26 02:44:17;;;;;;;1.43;1.33;;;;;;;8.34;100.00;96018.03;5050419;28;20219;-55
2023/03/26 02:46:45;;;;;;;2.57;1.30;;;;;;;8.38;100.00;96014.13;5052444;28;20250;-55
2023/03/26 02:49:12;;;;;;;1.53;1.20;;;;;;;8.36;100.00;96018.72;5054182;28;20214;-54
2023/03/26 02:51:38;;;;;;;4.23;1.47;;;;;;;8.36;100.00;96026.63;5054536;28;20217;-55
2023/03/26 02:54:06;;;;;;;1.73;1.40;;;;;;;8.39;100.00;96015.81;5054351;28;20203;-55
2023/03/26 02:56:33;;;;;;;2.20;1.23;;;;;;;8.39;100.00;96010.53;5054299;28;20215;-56
2023/03/26 02:58:59;;;;;;;4.33;1.30;;;;;;;8.34;100.00;96007.50;5054117;28;20215;-55
2023/03/26 03:01:29;;;;;;;1.57;1.10;;;;;;;8.37;100.00;95997.50;5053723;28;20199;-55
2023/03/26 03:04:00;;;;;;;3.30;1.33;;;;;;;8.40;100.00;95999.00;5053758;28;20211;-55
2023/03/26 03:06:29;;;;;;;2.90;0.93;;;;;;;8.40;100.00;95986.66;5053911;28;20203;-55
2023/03/26 03:08:56;;;;;;;4.40;1.30;;;;;;;8.39;100.00;95984.19;5053953;28;20604;-55
2023/03/26 03:11:23;;;;;;;4.50;2.40;;;;;;;8.35;100.00;95982.81;5053959;28;20590;-57
2023/03/26 03:13:50;;;;;;;1.63;1.10;;;;;;;8.36;100.00;95980.00;5053774;28;20218;-55
2023/03/26 03:16:17;;;;;;;1.67;1.00;;;;;;;8.37;100.00;95988.75;5054195;28;20195;-55
2023/03/26 03:18:43;;;;;;;2.90;1.20;;;;;;;8.44;100.00;95974.84;5053345;28;20227;-55
2023/03/26 03:21:11;;;;;;;2.60;1.20;;;;;;;8.41;100.00;95976.94;5054200;28;20296;-54
2023/03/26 03:23:41;;;;;;;1.60;0.93;;;;;;;8.35;100.00;95959.09;5052905;28;20203;-56
2023/03/26 03:26:13;;;;;;;2.30;1.07;;;;;;;8.35;100.00;95959.09;5053991;28;20513;-55
2023/03/26 03:28:39;;;;;;;1.63;1.00;;;;;;;8.36;100.00;95958.13;5053404;28;20218;-56
2023/03/26 03:31:07;;;;;;;1.20;0.80;;;;;;;8.35;100.00;95964.38;5053286;28;20203;-56
2023/03/26 03:33:35;;;;;;;2.67;1.60;;;;;;;8.26;100.00;95962.56;5053480;28;20270;-55
2023/03/26 03:36:09;;;;;;;3.27;1.40;;;;;;;8.25;100.00;95951.22;5053276;28;20206;-55
2023/03/26 03:38:39;;;;;;;3.27;1.20;;;;;;;8.26;100.00;95957.28;5052624;28;20678;-56
2023/03/26 03:41:06;;;;;;;2.37;1.10;;;;;;;8.28;100.00;95950.09;5052235;28;20286;-55
2023/03/26 03:43:33;;;;;;;2.60;1.73;;;;;;;8.29;100.00;95949.16;5054007;28;20207;-56
2023/03/26 03:46:00;;;;;;;2.57;1.10;;;;;;;8.27;100.00;95951.91;5061685;28;20198;-56
2023/03/26 03:48:26;;;;;;;1.73;1.23;;;;;;;8.28;100.00;95945.69;5055044;28;20211;-55
2023/03/26 03:50:53;;;;;;;3.20;1.27;;;;;;;8.29;100.00;95941.25;5053469;28;20199;-54
2023/03/26 03:53:20;;;;;;;1.40;1.13;;;;;;;8.35;100.00;95933.59;5054031;28;20284;-54
2023/03/26 03:55:51;;;;;;;2.73;1.60;;;;;;;8.33;100.00;95942.59;5053819;28;20207;-56
2023/03/26 03:58:20;;;;;;;1.60;1.47;;;;;;;8.26;100.00;95939.69;5053091;28;20207;-56
2023/03/26 04:00:47;;;;;;;3.13;1.50;;;;;;;8.25;100.00;95934.59;5060801;28;20211;-56
2023/03/26 04:03:14;;;;;;;2.00;1.40;;;;;;;8.25;100.00;95934.59;5068262;28;20206;-53
2023/03/26 04:05:40;;;;;;;3.00;1.10;;;;;;;8.25;100.00;95937.22;5068152;28;20242;-55
2023/03/26 04:08:07;;;;;;;4.10;1.27;;;;;;;8.25;100.00;95939.84;5070320;28;20192;-56
2023/03/26 04:10:34;;;;;;;1.17;1.07;;;;;;;8.23;100.00;95925.97;5070056;28;20274;-56
2023/03/26 04:13:02;;;;;;;2.63;1.30;;;;;;;8.26;100.00;95904.63;5053217;28;20349;-54
2023/03/26 04:15:28;;;;;;;3.17;1.33;;;;;;;8.27;100.00;95901.03;5052838;28;20195;-54
2023/03/26 04:17:56;;;;;;;1.70;1.13;;;;;;;8.27;100.00;95901.03;5052966;28;20211;-55
2023/03/26 04:20:22;;;;;;;1.97;1.30;;;;;;;8.29;100.00;95907.00;5052911;28;20203;-55
2023/03/26 04:22:49;;;;;;;2.03;1.20;;;;;;;8.23;100.00;95897.00;5052987;28;20207;-56
2023/03/26 04:25:16;;;;;;;2.90;1.50;;;;;;;8.20;100.00;95905.22;5052768;28;20241;-54
2023/03/26 04:27:43;;;;;;;3.07;1.30;;;;;;;8.18;100.00;95886.09;5053239;28;20218;-56
2023/03/26 04:30:14;;;;;;;2.87;1.20;;;;;;;8.17;100.00;95874.75;5052072;28;20260;-56
2023/03/26 04:32:41;;;;;;;2.17;1.20;;;;;;;8.21;100.00;95885.81;5052603;28;20195;-55
2023/03/26 04:35:10;;;;;;;1.33;1.20;;;;;;;8.23;100.00;95870.69;5052850;28;20211;-56
2023/03/26 04:37:39;;;;;;;1.27;1.03;;;;;;;8.19;100.00;95862.25;5052690;28;20203;-56
2023/03/26 04:40:11;;;;;;;2.57;1.30;;;;;;;8.25;100.00;95868.75;5052769;28;20231;-54
2023/03/26 04:42:45;;;;;;;1.27;1.17;;;;;;;8.25;100.00;95847.69;5052339;28;20268;-55
2023/03/26 04:45:13;;;;;;;1.70;1.50;;;;;;;8.24;100.00;95859.19;5052242;28;20196;-55
2023/03/26 04:47:42;;;;;;;2.13;1.67;;;;;;;8.27;100.00;95866.78;5052580;28;20266;-55
2023/03/26 04:50:11;;;;;;;3.60;1.23;;;;;;;8.23;100.00;95852.25;5051904;28;20191;-55
2023/03/26 04:52:37;;;;;;;3.37;1.77;;;;;;;8.26;100.00;95849.31;5051875;28;20235;-55
2023/03/26 04:55:06;;;;;;;1.73;1.33;;;;;;;8.21;100.00;95852.41;5052290;28;20545;-55
2023/03/26 04:57:36;;;;;;;4.07;1.30;;;;;;;8.28;100.00;95842.09;5051827;28;20211;-55
2023/03/26 05:00:15;;;;;;;3.20;1.00;;;;;;;8.21;100.00;95835.78;5051530;28;20895;-55
2023/03/26 05:02:43;;;;;;;2.40;1.53;;;;;;;8.23;100.00;95836.44;5051686;28;20195;-56
2023/03/26 05:05:10;;;;;;;1.30;0.87;;;;;;;8.22;100.00;95827.72;5050682;28;20225;-55
2023/03/26 05:07:36;;;;;;;2.43;1.10;;;;;;;8.15;100.00;95820.56;5051672;28;20223;-55
2023/03/26 05:10:03;;;;;;;1.53;0.77;;;;;;;8.19;100.00;95832.44;5051408;28;20206;-55
2023/03/26 05:12:30;;;;;;;3.37;1.10;;;;;;;8.22;100.00;95832.19;5051685;28;20211;-55
2023/03/26 05:14:56;;;;;;;2.17;1.27;;;;;;;8.21;100.00;95814.69;5051510;28;20234;-55
2023/03/26 05:17:23;;;;;;;1.27;1.17;;;;;;;8.22;100.00;95817.16;5052021;28;20203;-56
2023/03/26 05:19:51;;;;;;;4.53;1.20;;;;;;;8.20;100.00;95811.25;5051384;28;20218;-55
2023/03/26 05:22:18;;;;;;;1.10;0.97;;;;;;;8.21;100.00;95805.00;5051672;28;20207;-56
2023/03/26 05:24:44;;;;;;;1.23;1.07;;;;;;;8.23;100.00;95802.19;5051257;28;20304;-55
2023/03/26 05:27:15;;;;;;;3.10;1.40;;;;;;;8.17;100.00;95795.75;5051887;28;20539;-55
2023/03/26 05:29:43;;;;;;;1.10;1.03;;;;;;;8.22;100.00;95804.00;5052025;28;20253;-56
2023/03/26 05:32:09;;;;;;;1.43;1.20;;;;;;;8.26;100.00;95796.63;5051451;28;20706;-55
2023/03/26 05:34:36;;;;;;;2.73;1.00;;;;;;;8.30;100.00;95795.41;5051194;28;20217;-55
2023/03/26 05:37:08;;;;;;;2.60;1.30;;;;;;;8.22;100.00;95805.84;5051144;28;20241;-56
2023/03/26 05:39:35;;;;;;;3.63;1.13;;;;;;;8.24;100.00;95799.44;5051178;28;20714;-56
2023/03/26 05:42:03;;;;;;;2.07;1.30;;;;;;;8.29;100.00;95799.03;5050991;28;20664;-55
2023/03/26 05:44:29;;;;;;;1.93;1.10;;;;;;;8.25;100.00;95797.63;5051169;28;20222;-55
2023/03/26 05:46:56;;;;;;;2.83;1.30;;;;;;;8.23;100.00;95804.84;5050963;28;20253;-55
2023/03/26 05:49:24;;;;;;;3.07;1.37;;;;;;;8.24;100.00;95794.16;5051403;28;20285;-55
2023/03/26 05:51:51;;;;;;;1.77;1.00;;;;;;;8.23;100.00;95791.66;5050836;28;20222;-55
2023/03/26 05:54:19;;;;;;;0.90;0.90;;;;;;;8.18;100.00;95781.59;5050245;28;20639;-55
2023/03/26 05:56:45;;;;;;;2.57;1.43;;;;;;;8.18;100.00;95778.13;5050898;28;20299;-56
2023/03/26 05:59:12;;;;;;;3.10;2.10;;;;;;;8.16;100.00;95745.84;5050781;28;20254;-55
2023/03/26 06:01:38;;;;;;;4.00;1.37;;;;;;;8.13;100.00;95727.72;5051148;28;20203;-55
2023/03/26 06:04:05;;;;;;;4.07;1.27;;;;;;;8.17;100.00;95710.63;5051178;28;20199;-55
2023/03/26 06:06:32;;;;;;;2.73;1.57;;;;;;;8.22;100.00;95730.25;5051299;28;20195;-55
2023/03/26 06:08:58;;;;;;;1.77;1.20;;;;;;;8.24;100.00;95736.22;5056757;28;20242;-55
2023/03/26 06:11:26;;;;;;;2.93;1.70;;;;;;;8.25;100.00;95730.00;5058641;28;20199;-55
2023/03/26 06:13:52;;;;;;;1.20;1.10;;;;;;;8.23;100.00;95726.66;5055779;28;20215;-57
2023/03/26 06:16:19;;;;;;;1.53;1.20;;;;;;;8.17;100.00;95731.72;5051611;28;20210;-56
2023/03/26 06:18:50;;;;;;;2.60;1.43;;;;;;;8.10;100.00;95722.75;5051093;28;20255;-55
2023/03/26 06:21:17;;;;;;;1.63;1.30;;;;;;;8.11;100.00;95721.78;5054403;28;20195;-55
2023/03/26 06:23:44;;;;;;;2.13;1.30;;;;;;;8.09;100.00;95721.91;5053583;28;20642;-55
2023/03/26 06:26:11;;;;;;;1.83;1.50;;;;;;;8.13;100.00;95725.09;5054940;28;20646;-56
2023/03/26 06:28:39;;;;;;;2.73;1.40;;;;;;;8.24;100.00;95738.03;5054606;28;20196;-55
2023/03/26 06:31:05;;;;;;;2.30;1.20;;;;;;;8.23;100.00;95742.47;5054919;28;20195;-55
2023/03/26 06:33:32;;;;;;;4.83;1.50;;;;;;;8.22;100.00;95732.09;5055084;28;20725;-55
2023/03/26 06:35:59;;;;;;;4.10;1.60;;;;;;;8.21;100.00;95733.06;5054073;28;20226;-55
2023/03/26 06:38:26;;;;;;;2.77;1.30;;;;;;;8.23;100.00;95747.72;5054092;28;20218;-55
2023/03/26 06:40:53;;;;;;;1.43;1.20;;;;;;;8.24;100.00;95738.84;5053583;28;20207;-56
2023/03/26 06:43:20;;;;;;;1.90;1.60;;;;;;;8.28;100.00;95734.13;5054233;28;20659;-55
2023/03/26 06:45:53;;;;;;;2.53;1.17;;;;;;;8.27;100.00;95741.19;5055762;28;20203;-56
2023/03/26 06:48:21;;;;;;;1.80;1.30;;;;;;;8.28;100.00;95740.25;5054420;28;20269;-56
2023/03/26 06:50:48;;;;;;;1.80;1.33;;;;;;;8.30;100.00;95729.53;5054360;28;20507;-55
2023/03/26 06:53:15;;;;;;;3.20;1.20;;;;;;;8.32;100.00;95735.50;5054055;28;20218;-55
2023/03/26 06:55:43;;;;;;;3.57;1.40;;;;;;;8.32;100.00;95730.25;5054413;28;20763;-56
2023/03/26 06:58:11;;;;;;;2.07;1.50;;;;;;;8.34;100.00;95729.09;5054544;28;20211;-55
2023/03/26 07:00:37;;;;;;;4.17;1.60;;;;;;;8.39;100.00;95731.28;5052842;28;20227;-55
2023/03/26 07:03:10;;;;;;;1.30;1.20;;;;;;;8.38;100.00;95735.72;5053833;28;20856;-55
2023/03/26 07:05:37;;;;;;;1.80;1.20;;;;;;;8.38;100.00;95713.81;5053176;28;20524;-54
2023/03/26 07:08:05;;;;;;;2.67;1.70;;;;;;;8.35;100.00;95709.69;5052650;28;20635;-55
2023/03/26 07:10:31;;;;;;;1.30;1.20;;;;;;;8.41;100.00;95719.63;5053921;28;20556;-55
2023/03/26 07:12:58;;;;;;;1.30;1.20;;;;;;;8.46;100.00;95706.00;5053975;28;20219;-55
2023/03/26 07:15:24;;;;;;;3.80;1.20;;;;;;;8.50;100.00;95708.13;5054155;28;20217;-55
2023/03/26 07:17:51;;;;;;;1.93;1.10;;;;;;;8.47;100.00;95702.34;5053498;28;20222;-55
2023/03/26 07:20:20;;;;;;;2.50;1.33;;;;;;;8.40;100.00;95711.84;5053329;28;20682;-55
2023/03/26 07:22:48;;;;;;;1.63;1.20;;;;;;;8.52;100.00;95710.63;5054080;28;20560;-55
2023/03/26 07:25:17;;;;;;;1.07;1.00;;;;;;;8.55;100.00;95718.22;5053717;28;20529;-55
2023/03/26 07:27:49;;;;;;;2.23;1.10;;;;;;;8.58;100.00;95719.72;5053906;28;20215;-55
2023/03/26 07:30:20;;;;;;;1.80;1.37;;;;;;;8.51;100.00;95703.72;5053822;28;20191;-54
2023/03/26 07:32:51;;;;;;;1.73;1.30;;;;;;;8.51;100.00;95690.53;5052962;28;20199;-55
2023/03/26 07:35:22;;;;;;;3.87;1.30;;;;;;;8.62;100.00;95687.66;5052900;28;20256;-54
2023/03/26 07:37:58;;;;;;;1.73;1.40;;;;;;;8.61;100.00;95691.25;5052995;28;20717;-55
2023/03/26 07:40:40;;;;;;;2.53;1.77;;;;;;;8.58;100.00;95678.41;5053005;28;20341;-55
2023/03/26 07:43:18;;;;;;;2.43;1.47;;;;;;;8.52;100.00;95668.47;5055743;28;20199;-55
2023/03/26 07:45:45;;;;;;;1.50;1.40;;;;;;;8.49;100.00;95668.78;5053492;28;20203;-56
2023/03/26 07:48:16;;;;;;;2.07;1.20;;;;;;;8.55;100.00;95668.16;5052880;28;20235;-55
2023/03/26 07:50:45;;;;;;;1.50;1.40;;;;;;;8.59;100.00;95668.69;5053025;28;20256;-55
2023/03/26 07:53:12;;;;;;;1.80;1.20;;;;;;;8.64;100.00;95669.91;5053528;28;20203;-54
2023/03/26 07:55:44;;;;;;;2.50;1.47;;;;;;;8.61;100.00;95667.53;5053447;28;20196;-55
2023/03/26 07:58:25;;;;;;;1.23;1.10;;;;;;;8.65;100.00;95658.34;5053711;28;20217;-54
2023/03/26 08:00:55;;;;;;;1.50;1.40;;;;;;;8.73;100.00;95665.47;5053062;28;20212;-55
2023/03/26 08:03:43;;;;;;;1.50;1.40;;;;;;;8.73;100.00;95665.47;5053463;28;20203;-55
2023/03/26 08:06:15;;;;;;;2.67;1.50;;;;;;;8.77;100.00;95657.13;5053204;28;20214;-55
2023/03/26 08:08:46;;;;;;;1.43;1.00;;;;;;;8.73;100.00;95662.84;5052614;28;20215;-55
2023/03/26 08:11:26;;;;;;;1.77;1.20;;;;;;;8.66;100.00;95657.38;5052997;28;20210;-55
2023/03/26 08:13:58;;;;;;;2.50;1.93;;;;;;;8.61;100.00;95651.72;5053078;28;20218;-55
2023/03/26 08:16:28;;;;;;;2.50;1.73;;;;;;;8.73;100.00;95645.22;5053308;28;20202;-54
2023/03/26 08:19:01;;;;;;;3.90;1.57;;;;;;;8.77;100.00;95649.22;5052261;28;20662;-56
2023/03/26 08:21:32;;;;;;;2.90;1.60;;;;;;;8.77;100.00;95643.94;5051596;28;20211;-54
2023/03/26 08:24:02;;;;;;;1.30;1.23;;;;;;;8.83;100.00;95643.31;5052748;28;20588;-55
2023/03/26 08:26:34;;;;;;;2.50;1.57;;;;;;;8.80;100.00;95650.69;5052443;28;20297;-54
2023/03/26 08:29:12;;;;;;;3.70;2.30;;;;;;;8.62;100.00;95656.03;5052829;28;20647;-55
2023/03/26 08:31:41;;;;;;;8.10;3.90;;;;;;;8.56;100.00;95656.66;5050928;28;20222;-55
2023/03/26 08:34:10;;;;;;;2.90;2.03;;;;;;;8.65;100.00;95652.25;5054719;28;20244;-55
2023/03/26 08:36:38;;;;;;;5.23;1.70;;;;;;;8.61;100.00;95659.63;5060836;28;20199;-55
2023/03/26 08:39:06;;;;;;;1.40;1.30;;;;;;;8.61;100.00;95651.72;5063012;28;20211;-54
2023/03/26 08:42:08;;;;;;;2.57;1.47;;;;;;;8.73;100.00;95652.31;5063385;28;20218;-56
2023/03/26 08:45:22;;;;;;;1.53;1.43;;;;;;;8.87;100.00;95657.84;5045965;28;20289;-56
2023/03/26 08:48:24;;;;;;;1.87;1.77;;;;;;;8.98;100.00;95659.38;5002585;28;20262;-56
2023/03/26 08:51:17;;;;;;;2.03;1.67;;;;;;;8.97;100.00;95655.91;5052606;28;20275;-55
2023/03/26 08:54:10;;;;;;;1.97;1.80;;;;;;;9.02;100.00;95646.69;5054098;28;20207;-55
2023/03/26 08:56:46;;;;;;;2.87;1.60;;;;;;;9.07;100.00;95644.44;5058946;28;20195;-56
2023/03/26 08:59:37;;;;;;;3.27;1.47;;;;;;;9.07;100.00;95662.88;5065790;28;20195;-57
2023/03/26 09:02:17;;;;;;;2.70;1.73;;;;;;;9.08;100.00;95677.69;5058403;28;20187;-55
2023/03/26 09:05:18;;;;;;;2.37;1.57;;;;;;;8.90;100.00;95654.88;5052778;28;20523;-55
2023/03/26 09:08:02;;;;;;;2.43;1.27;;;;;;;9.02;100.00;95683.63;5052064;28;20678;-55
2023/03/26 09:10:52;;;;;;;1.17;1.00;;;;;;;8.95;100.00;95689.53;5051931;28;20222;-55
2023/03/26 09:13:47;;;;;;;3.03;1.57;;;;;;;8.92;100.00;95689.00;5051883;28;20210;-55
2023/03/26 09:16:31;;;;;;;1.70;1.60;;;;;;;8.97;100.00;95695.44;5052908;28;20211;-55
2023/03/26 09:19:20;;;;;;;1.57;1.47;;;;;;;8.91;100.00;95701.34;5052669;28;20199;-56
2023/03/26 09:22:27;;;;;;;1.07;1.00;;;;;;;8.95;100.00;95692.16;5051693;28;20655;-55
2023/03/26 09:25:22;;;;;;;2.67;1.30;;;;;;;9.00;100.00;95683.75;5047188;28;20218;-56
2023/03/26 09:28:06;;;;;;;1.47;1.27;;;;;;;9.27;100.00;95674.84;5008274;28;20199;-55
2023/03/26 09:30:54;;;;;;;1.33;1.23;;;;;;;9.44;100.00;95680.00;5051672;28;21393;-55
2023/03/26 09:33:59;;;;;;;1.60;1.50;;;;;;;9.65;100.00;95690.16;5048343;28;20568;-55
2023/03/26 09:36:33;;;;;;;2.50;1.40;;;;;;;9.76;100.00;95689.03;5049201;28;20642;-56
2023/03/26 09:39:09;;;;;;;2.07;1.10;;;;;;;9.75;100.00;95685.53;5054526;28;20206;-55
2023/03/26 09:41:41;;;;;;;1.00;1.00;;;;;;;9.60;100.00;95678.44;5052004;28;20249;-55
2023/03/26 09:44:27;;;;;;;1.03;1.03;;;;;;;9.67;100.00;95688.16;5051790;28;20246;-56
2023/03/26 09:47:05;;;;;;;1.70;1.37;;;;;;;9.71;100.00;95697.41;5050870;28;21394;-55
2023/03/26 09:49:41;;;;;;;1.33;1.23;;;;;;;9.61;100.00;95666.88;5050988;28;20214;-56
2023/03/26 09:52:28;;;;;;;2.20;1.60;;;;;;;9.76;100.00;95691.66;5051543;28;20202;-56
2023/03/26 09:55:07;;;;;;;1.43;1.33;;;;;;;9.84;100.00;95689.88;5051643;28;20200;-55
2023/03/26 09:57:58;;;;;;;2.10;1.47;;;;;;;9.58;100.00;95677.75;5051587;28;20200;-55
2023/03/26 10:00:34;;;;;;;1.83;1.13;;;;;;;9.66;100.00;95670.69;5051266;28;20562;-55
2023/03/26 10:03:17;;;;;;;2.30;1.20;;;;;;;9.79;100.00;95667.56;5051334;28;20203;-54
2023/03/26 10:05:48;;;;;;;3.23;1.60;;;;;;;10.00;100.00;95671.41;5051117;28;20207;-55
2023/03/26 10:08:33;;;;;;;1.20;1.07;;;;;;;10.23;100.00;95671.63;5051926;28;20191;-56
2023/03/26 10:11:05;;;;;;;2.57;1.73;;;;;;;10.37;100.00;95675.44;5069848;28;20202;-56
2023/03/26 10:13:41;;;;;;;1.50;1.07;;;;;;;10.57;100.00;95674.09;5073974;28;20202;-56
2023/03/26 10:16:17;;;;;;;1.77;0.80;;;;;;;10.72;100.00;95669.78;5070202;28;20287;-55
2023/03/26 10:18:55;;;;;;;0.80;0.73;;;;;;;10.84;99.59;95673.72;5068798;28;20202;-55
2023/03/26 10:21:38;;;;;;;1.17;0.87;;;;;;;11.03;95.50;95671.69;5059918;28;20207;-54
2023/03/26 10:24:23;;;;;;;1.30;0.80;;;;;;;11.23;96.36;95657.09;5052372;28;20202;-55
2023/03/26 10:26:59;;;;;;;1.50;1.40;;;;;;;11.36;94.87;95662.66;5052035;28;20206;-55
2023/03/26 10:29:53;;;;;;;1.90;0.90;;;;;;;11.31;90.01;95652.59;5051926;28;20270;-56
2023/03/26 10:32:26;;;;;;;3.03;1.37;;;;;;;11.38;92.07;95655.38;5052506;28;20195;-55
2023/03/26 10:35:04;;;;;;;2.70;2.13;;;;;;;11.40;95.79;95666.63;5051052;28;20202;-55
2023/03/26 10:37:39;;;;;;;1.40;1.10;;;;;;;11.52;93.03;95657.28;5051195;28;20203;-55
2023/03/26 10:40:24;;;;;;;1.73;1.30;;;;;;;11.56;91.59;95655.97;5051474;28;20225;-55
2023/03/26 10:43:18;;;;;;;1.47;0.80;;;;;;;11.54;94.41;95660.63;5050482;28;20203;-56
2023/03/26 10:46:03;;;;;;;0.80;0.80;;;;;;;11.58;92.68;95653.16;5052916;28;20210;-54
2023/03/26 10:48:40;;;;;;;2.57;1.20;;;;;;;11.58;93.36;95659.28;5051463;28;20257;-54
2023/03/26 10:51:25;;;;;;;3.93;2.40;;;;;;;11.64;91.76;95649.81;5050975;28;20206;-54
2023/03/26 10:53:54;;;;;;;2.93;1.60;;;;;;;11.62;95.88;95652.59;5051355;28;20257;-56
2023/03/26 10:56:23;;;;;;;1.70;1.20;;;;;;;11.71;94.89;95658.72;5050996;28;20199;-55
2023/03/26 10:58:49;;;;;;;1.50;1.20;;;;;;;11.63;93.72;95651.63;5051522;28;20215;-54
2023/03/26 11:01:23;;;;;;;1.27;1.17;;;;;;;11.79;93.74;95650.75;5052160;28;20234;-55
2023/03/26 11:03:53;;;;;;;2.93;1.40;;;;;;;11.92;92.29;95656.28;5059289;28;20207;-55
2023/03/26 11:06:40;;;;;;;1.57;1.20;;;;;;;11.95;91.07;95654.13;5061146;28;20215;-56
2023/03/26 11:09:20;;;;;;;2.43;1.37;;;;;;;12.06;89.24;95654.69;5057141;28;20233;-57
2023/03/26 11:11:52;;;;;;;1.70;1.10;;;;;;;12.11;88.11;95652.38;5055348;28;20195;-55
2023/03/26 11:14:25;;;;;;;1.17;1.07;;;;;;;12.18;87.07;95655.97;5056494;28;20623;-55
2023/03/26 11:16:59;;;;;;;2.77;1.10;;;;;;;12.25;85.97;95652.44;5055607;28;20191;-54
2023/03/26 11:19:32;;;;;;;1.77;0.93;;;;;;;12.32;88.06;95665.78;5056002;28;20298;-58
2023/03/26 11:22:02;;;;;;;1.33;1.00;;;;;;;12.54;88.02;95650.88;5054930;28;20655;-57
2023/03/26 11:24:43;;;;;;;1.80;1.10;;;;;;;12.65;85.32;95643.28;5054405;28;20203;-55
2023/03/26 11:27:14;;;;;;;1.57;0.70;;;;;;;12.84;85.37;95639.28;5054918;28;20205;-55
2023/03/26 11:29:46;;;;;;;1.30;1.07;;;;;;;12.95;81.56;95633.53;5053867;28;20260;-56
2023/03/26 11:32:14;;;;;;;1.47;0.93;;;;;;;13.00;82.26;95630.34;5054242;28;20214;-56
2023/03/26 11:34:46;;;;;;;1.67;1.00;;;;;;;13.03;78.32;95632.63;5053580;28;20660;-56
2023/03/26 11:37:19;;;;;;;2.03;1.00;;;;;;;13.03;79.53;95633.47;5053191;28;20215;-56
2023/03/26 11:39:49;;;;;;;2.03;1.10;;;;;;;12.92;78.20;95633.91;5053704;28;20207;-55
2023/03/26 11:42:18;;;;;;;1.03;0.80;;;;;;;13.03;79.48;95632.63;5052335;28;20219;-54
2023/03/26 11:44:47;;;;;;;2.23;1.17;;;;;;;12.91;77.96;95619.00;5053589;28;20248;-55
2023/03/26 11:47:16;;;;;;;2.77;1.47;;;;;;;12.94;80.44;95623.94;5054110;28;20235;-55
2023/03/26 11:49:45;;;;;;;1.67;1.10;;;;;;;12.97;79.09;95608.47;5054192;28;20203;-55
2023/03/26 11:52:14;;;;;;;1.10;1.00;;;;;;;13.08;79.31;95609.00;5054565;28;20199;-55
2023/03/26 11:54:42;;;;;;;0.63;0.63;;;;;;;13.18;77.15;95614.91;5053826;28;20239;-56
2023/03/26 11:57:12;;;;;;;1.50;1.00;;;;;;;13.21;74.87;95609.25;5053337;28;20207;-55